sensor_id;sensor_type;location;lat;lon;timestamp;pressure;altitude;pressure_sealevel;temperature;humidity
14089;BME280;7120;52.890;6.040;2023-08-07T00:02:22;101012.91;;;15.90;100.00
14089;BME280;7120;52.890;6.040;2023-08-07T00:04:48;101005.88;;;15.92;100.00
14089;BME280;7120;52.890;6.040;2023-08-07T00:07:13;101010.41;;;15.97;100.00
14089;BME280;7120;52.890;6.040;2023-08-07T00:09:39;101004.34;;;15.83;100.00
14089;BME280;7120;52.890;6.040;2023-08-07T00:12:04;101018.41;;;15.90;100.00
14089;BME280;7120;52.890;6.040;2023-08-07T00:14:30;101010.31;;;15.85;100.00
14089;BME280;7120;52.890;6.040;2023-08-07T00:16:55;101008.38;;;15.85;100.00
14089;BME280;7120;52.890;6.040;2023-08-07T00:19:20;101009.00;;;15.91;100.00
14089;BME280;7120;52.890;6.040;2023-08-07T00:21:46;101007.28;;;15.78;100.00
14089;BME280;7120;52.890;6.040;2023-08-07T00:24:11;101004.72;;;15.73;100.00
14089;BME280;7120;52.890;6.040;2023-08-07T00:26:37;101002.97;;;15.68;100.00
14089;BME280;7120;52.890;6.040;2023-08-07T00:29:02;101007.63;;;15.76;100.00
14089;BME280;7120;52.890;6.040;2023-08-07T00:31:27;101014.50;;;15.61;100.00
14089;BME280;7120;52.890;6.040;2023-08-07T00:33:57;101015.16;;;15.50;100.00
14089;BME280;7120;52.890;6.040;2023-08-07T00:36:22;101019.75;;;15.46;100.00
14089;BME280;7120;52.890;6.040;2023-08-07T00:38:48;101014.78;;;15.30;100.00
14089;BME280;7120;52.890;6.040;2023-08-07T00:41:13;101026.28;;;15.32;100.00
14089;BME280;7120;52.890;6.040;2023-08-07T00:43:39;101018.47;;;15.34;100.00
14089;BME280;7120;52.890;6.040;2023-08-07T00:46:04;101028.41;;;15.27;100.00
14089;BME280;7120;52.890;6.040;2023-08-07T00:48:31;101021.56;;;15.33;100.00
14089;BME280;7120;52.890;6.040;2023-08-07T00:50:57;101022.53;;;15.28;100.00
14089;BME280;7120;52.890;6.040;2023-08-07T00:53:23;101023.88;;;15.22;100.00
14089;BME280;7120;52.890;6.040;2023-08-07T00:55:48;101025.81;;;15.22;100.00
14089;BME280;7120;52.890;6.040;2023-08-07T00:58:14;101028.41;;;15.27;100.00
14089;BME280;7120;52.890;6.040;2023-08-07T01:00:40;101028.56;;;15.30;100.00
14089;BME280;7120;52.890;6.040;2023-08-07T01:03:07;101031.63;;;15.37;100.00
14089;BME280;7120;52.890;6.040;2023-08-07T01:05:33;101029.00;;;15.41;100.00
14089;BME280;7120;52.890;6.040;2023-08-07T01:07:59;101022.69;;;15.41;100.00
14089;BME280;7120;52.890;6.040;2023-08-07T01:10:36;101017.47;;;15.48;100.00
14089;BME280;7120;52.890;6.040;2023-08-07T01:13:16;101025.09;;;15.42;100.00
14089;BME280;7120;52.890;6.040;2023-08-07T01:15:44;101026.06;;;15.46;100.00
14089;BME280;7120;52.890;6.040;2023-08-07T01:18:10;101019.88;;;15.49;100.00
14089;BME280;7120;52.890;6.040;2023-08-07T01:20:36;101018.94;;;15.45;100.00
14089;BME280;7120;52.890;6.040;2023-08-07T01:23:02;101020.22;;;15.48;100.00
14089;BME280;7120;52.890;6.040;2023-08-07T01:25:27;101010.47;;;15.50;100.00
14089;BME280;7120;52.890;6.040;2023-08-07T01:30:38;101016.66;;;15.47;100.00
14089;BME280;7120;52.890;6.040;2023-08-07T01:33:14;101015.22;;;15.41;100.00
14089;BME280;7120;52.890;6.040;2023-08-07T01:35:44;101015.50;;;15.48;100.00
14089;BME280;7120;52.890;6.040;2023-08-07T01:38:12;101013.13;;;15.38;100.00
14089;BME280;7120;52.890;6.040;2023-08-07T01:40:39;101011.22;;;15.30;100.00
14089;BME280;7120;52.890;6.040;2023-08-07T01:43:05;101015.63;;;15.22;100.00
14089;BME280;7120;52.890;6.040;2023-08-07T01:45:31;101015.09;;;15.29;100.00
14089;BME280;7120;52.890;6.040;2023-08-07T01:47:56;101011.22;;;15.21;100.00
14089;BME280;7120;52.890;6.040;2023-08-07T01:50:22;101010.75;;;15.19;100.00
14089;BME280;7120;52.890;6.040;2023-08-07T01:52:49;101015.78;;;15.17;100.00
14089;BME280;7120;52.890;6.040;2023-08-07T01:55:15;101009.97;;;15.10;100.00
14089;BME280;7120;52.890;6.040;2023-08-07T01:57:41;101018.03;;;15.15;100.00
14089;BME280;7120;52.890;6.040;2023-08-07T02:00:07;101018.38;;;15.22;100.00
14089;BME280;7120;52.890;6.040;2023-08-07T02:02:34;101012.03;;;15.22;100.00
14089;BME280;7120;52.890;6.040;2023-08-07T02:04:59;101004.41;;;15.27;100.00
14089;BME280;7120;52.890;6.040;2023-08-07T02:07:24;101010.25;;;15.26;100.00
14089;BME280;7120;52.890;6.040;2023-08-07T02:09:50;101017.25;;;15.23;100.00
14089;BME280;7120;52.890;6.040;2023-08-07T02:12:15;101002.19;;;15.12;100.00
14089;BME280;7120;52.890;6.040;2023-08-07T02:14:41;101009.78;;;15.24;100.00
14089;BME280;7120;52.890;6.040;2023-08-07T02:17:06;101008.94;;;15.32;100.00
14089;BME280;7120;52.890;6.040;2023-08-07T02:19:31;100998.75;;;15.24;100.00
14089;BME280;7120;52.890;6.040;2023-08-07T02:21:57;101012.88;;;15.22;100.00
14089;BME280;7120;52.890;6.040;2023-08-07T02:24:22;101019.00;;;15.28;100.00
14089;BME280;7120;52.890;6.040;2023-08-07T02:26:48;101000.72;;;15.15;100.00
14089;BME280;7120;52.890;6.040;2023-08-07T02:29:13;101000.25;;;15.13;100.00
14089;BME280;7120;52.890;6.040;2023-08-07T02:31:39;101021.28;;;15.26;100.00
14089;BME280;7120;52.890;6.040;2023-08-07T02:34:04;101027.94;;;15.25;100.00
14089;BME280;7120;52.890;6.040;2023-08-07T02:36:29;101017.56;;;15.13;100.00
14089;BME280;7120;52.890;6.040;2023-08-07T02:38:55;101025.34;;;15.20;100.00
14089;BME280;7120;52.890;6.040;2023-08-07T02:41:20;101021.63;;;15.16;100.00
14089;BME280;7120;52.890;6.040;2023-08-07T02:43:46;101030.22;;;15.14;100.00
14089;BME280;7120;52.890;6.040;2023-08-07T02:46:11;101026.97;;;15.12;100.00
14089;BME280;7120;52.890;6.040;2023-08-07T02:48:36;101032.81;;;15.10;100.00
14089;BME280;7120;52.890;6.040;2023-08-07T02:51:02;101022.94;;;15.09;100.00
14089;BME280;7120;52.890;6.040;2023-08-07T02:53:28;101033.13;;;15.18;100.00
14089;BME280;7120;52.890;6.040;2023-08-07T02:55:53;101030.53;;;15.13;100.00
14089;BME280;7120;52.890;6.040;2023-08-07T02:58:18;101029.41;;;15.14;100.00
14089;BME280;7120;52.890;6.040;2023-08-07T03:00:44;101030.22;;;15.14;100.00
14089;BME280;7120;52.890;6.040;2023-08-07T03:03:09;101031.84;;;15.06;100.00
14089;BME280;7120;52.890;6.040;2023-08-07T03:05:35;101030.72;;;15.07;100.00
14089;BME280;7120;52.890;6.040;2023-08-07T03:08:00;101030.06;;;15.10;100.00
14089;BME280;7120;52.890;6.040;2023-08-07T03:10:25;101033.31;;;15.04;100.00
14089;BME280;7120;52.890;6.040;2023-08-07T03:12:51;101036.09;;;15.04;100.00
14089;BME280;7120;52.890;6.040;2023-08-07T03:15:16;101033.00;;;15.05;100.00
14089;BME280;7120;52.890;6.040;2023-08-07T03:17:42;101051.31;;;15.10;100.00
14089;BME280;7120;52.890;6.040;2023-08-07T03:20:08;101054.69;;;15.07;100.00
14089;BME280;7120;52.890;6.040;2023-08-07T03:22:34;101055.84;;;14.97;100.00
14089;BME280;7120;52.890;6.040;2023-08-07T03:24:59;101051.13;;;15.06;100.00
14089;BME280;7120;52.890;6.040;2023-08-07T03:27:25;101047.94;;;14.96;100.00
14089;BME280;7120;52.890;6.040;2023-08-07T03:29:50;101055.03;;;14.97;100.00
14089;BME280;7120;52.890;6.040;2023-08-07T03:32:16;101046.78;;;14.79;100.00
14089;BME280;7120;52.890;6.040;2023-08-07T03:34:42;101056.22;;;14.87;100.00
14089;BME280;7120;52.890;6.040;2023-08-07T03:37:07;101056.34;;;14.91;100.00
14089;BME280;7120;52.890;6.040;2023-08-07T03:39:33;101049.22;;;14.98;100.00
14089;BME280;7120;52.890;6.040;2023-08-07T03:41:58;101049.38;;;14.93;100.00
14089;BME280;7120;52.890;6.040;2023-08-07T03:44:23;101064.13;;;14.97;100.00
14089;BME280;7120;52.890;6.040;2023-08-07T03:46:49;101053.91;;;14.98;100.00
14089;BME280;7120;52.890;6.040;2023-08-07T03:49:16;101058.75;;;15.01;100.00
14089;BME280;7120;52.890;6.040;2023-08-07T03:51:42;101063.31;;;14.97;100.00
14089;BME280;7120;52.890;6.040;2023-08-07T03:54:07;101057.78;;;15.05;100.00
14089;BME280;7120;52.890;6.040;2023-08-07T03:56:32;101035.47;;;14.90;100.00
14089;BME280;7120;52.890;6.040;2023-08-07T03:59:02;101044.16;;;15.00;100.00
14089;BME280;7120;52.890;6.040;2023-08-07T04:01:27;101048.88;;;15.00;100.00
14089;BME280;7120;52.890;6.040;2023-08-07T04:03:52;101048.72;;;14.96;100.00
14089;BME280;7120;52.890;6.040;2023-08-07T04:06:18;101055.69;;;15.02;100.00
14089;BME280;7120;52.890;6.040;2023-08-07T04:08:47;101052.94;;;15.02;100.00
14089;BME280;7120;52.890;6.040;2023-08-07T04:11:12;101045.78;;;15.10;100.00
14089;BME280;7120;52.890;6.040;2023-08-07T04:13:38;101055.50;;;15.07;100.00
14089;BME280;7120;52.890;6.040;2023-08-07T04:16:04;101052.44;;;15.00;100.00
14089;BME280;7120;52.890;6.040;2023-08-07T04:18:30;101052.59;;;15.04;100.00
14089;BME280;7120;52.890;6.040;2023-08-07T04:20:57;101058.25;;;15.07;100.00
14089;BME280;7120;52.890;6.040;2023-08-07T04:23:23;101054.69;;;15.07;100.00
14089;BME280;7120;52.890;6.040;2023-08-07T04:25:52;101061.34;;;15.06;100.00
14089;BME280;7120;52.890;6.040;2023-08-07T04:28:18;101074.94;;;15.11;100.00
14089;BME280;7120;52.890;6.040;2023-08-07T04:30:44;101072.69;;;15.04;100.00
14089;BME280;7120;52.890;6.040;2023-08-07T04:33:09;101076.06;;;15.19;100.00
14089;BME280;7120;52.890;6.040;2023-08-07T04:35:35;101075.75;;;15.11;100.00
14089;BME280;7120;52.890;6.040;2023-08-07T04:38:01;101077.53;;;15.07;100.00
14089;BME280;7120;52.890;6.040;2023-08-07T04:40:27;101074.81;;;14.99;100.00
14089;BME280;7120;52.890;6.040;2023-08-07T04:42:54;101083.41;;;14.97;100.00
14089;BME280;7120;52.890;6.040;2023-08-07T04:45:19;101087.28;;;14.96;100.00
14089;BME280;7120;52.890;6.040;2023-08-07T04:47:44;101088.44;;;14.95;100.00
14089;BME280;7120;52.890;6.040;2023-08-07T04:50:11;101096.69;;;14.95;100.00
14089;BME280;7120;52.890;6.040;2023-08-07T04:52:36;101102.50;;;14.94;100.00
14089;BME280;7120;52.890;6.040;2023-08-07T04:55:01;101092.63;;;14.93;100.00
14089;BME280;7120;52.890;6.040;2023-08-07T04:57:27;101090.19;;;14.91;100.00
14089;BME280;7120;52.890;6.040;2023-08-07T04:59:52;101101.06;;;14.88;100.00
14089;BME280;7120;52.890;6.040;2023-08-07T05:02:19;101090.06;;;14.88;100.00
14089;BME280;7120;52.890;6.040;2023-08-07T05:04:45;101099.94;;;14.89;100.00
14089;BME280;7120;52.890;6.040;2023-08-07T05:07:10;101103.66;;;14.84;100.00
14089;BME280;7120;52.890;6.040;2023-08-07T05:09:36;101102.19;;;14.78;100.00
14089;BME280;7120;52.890;6.040;2023-08-07T05:12:01;101107.53;;;14.83;100.00
14089;BME280;7120;52.890;6.040;2023-08-07T05:14:28;101101.84;;;14.79;100.00
14089;BME280;7120;52.890;6.040;2023-08-07T05:16:54;101115.97;;;14.78;100.00
14089;BME280;7120;52.890;6.040;2023-08-07T05:19:19;101112.56;;;14.81;100.00
14089;BME280;7120;52.890;6.040;2023-08-07T05:21:45;101121.16;;;14.97;100.00
14089;BME280;7120;52.890;6.040;2023-08-07T05:24:15;101118.56;;;15.09;100.00
14089;BME280;7120;52.890;6.040;2023-08-07T05:26:40;101112.25;;;15.08;100.00
14089;BME280;7120;52.890;6.040;2023-08-07T05:29:05;101132.13;;;15.31;100.00
14089;BME280;7120;52.890;6.040;2023-08-07T05:31:32;101125.75;;;15.48;100.00
14089;BME280;7120;52.890;6.040;2023-08-07T05:33:57;101127.53;;;15.53;100.00
14089;BME280;7120;52.890;6.040;2023-08-07T05:36:22;101132.59;;;15.51;100.00
14089;BME280;7120;52.890;6.040;2023-08-07T05:38:48;101136.31;;;15.46;100.00
14089;BME280;7120;52.890;6.040;2023-08-07T05:41:13;101136.97;;;15.43;100.00
14089;BME280;7120;52.890;6.040;2023-08-07T05:43:39;101148.00;;;15.52;100.00
14089;BME280;7120;52.890;6.040;2023-08-07T05:46:04;101142.16;;;15.36;100.00
14089;BME280;7120;52.890;6.040;2023-08-07T05:48:29;101143.81;;;15.37;100.00
14089;BME280;7120;52.890;6.040;2023-08-07T05:50:55;101151.41;;;15.40;100.00
14089;BME280;7120;52.890;6.040;2023-08-07T05:53:20;101154.31;;;15.52;100.00
14089;BME280;7120;52.890;6.040;2023-08-07T05:55:45;101161.13;;;15.46;100.00
14089;BME280;7120;52.890;6.040;2023-08-07T05:58:11;101157.88;;;15.61;100.00
14089;BME280;7120;52.890;6.040;2023-08-07T06:00:37;101159.16;;;15.73;100.00
14089;BME280;7120;52.890;6.040;2023-08-07T06:03:02;101157.50;;;15.80;100.00
14089;BME280;7120;52.890;6.040;2023-08-07T06:05:28;101150.22;;;15.76;100.00
14089;BME280;7120;52.890;6.040;2023-08-07T06:07:53;101164.31;;;15.83;100.00
14089;BME280;7120;52.890;6.040;2023-08-07T06:10:19;101161.66;;;15.95;100.00
14089;BME280;7120;52.890;6.040;2023-08-07T06:12:44;101155.97;;;16.00;100.00
14089;BME280;7120;52.890;6.040;2023-08-07T06:15:09;101164.47;;;15.86;100.00
14089;BME280;7120;52.890;6.040;2023-08-07T06:17:35;101165.13;;;15.57;100.00
14089;BME280;7120;52.890;6.040;2023-08-07T06:20:00;101164.38;;;15.65;100.00
14089;BME280;7120;52.890;6.040;2023-08-07T06:22:26;101168.91;;;15.61;100.00
14089;BME280;7120;52.890;6.040;2023-08-07T06:24:51;101168.41;;;15.59;100.00
14089;BME280;7120;52.890;6.040;2023-08-07T06:27:16;101184.47;;;15.66;100.00
14089;BME280;7120;52.890;6.040;2023-08-07T06:29:42;101184.78;;;15.73;100.00
14089;BME280;7120;52.890;6.040;2023-08-07T06:32:07;101188.00;;;15.75;100.00
14089;BME280;7120;52.890;6.040;2023-08-07T06:34:35;101184.41;;;15.83;100.00
14089;BME280;7120;52.890;6.040;2023-08-07T06:37:00;101188.69;;;15.72;100.00
14089;BME280;7120;52.890;6.040;2023-08-07T06:39:26;101186.09;;;15.58;100.00
14089;BME280;7120;52.890;6.040;2023-08-07T06:41:51;101192.88;;;15.61;100.00
14089;BME280;7120;52.890;6.040;2023-08-07T06:44:16;101190.44;;;15.77;100.00
14089;BME280;7120;52.890;6.040;2023-08-07T06:46:42;101199.38;;;15.74;100.00
14089;BME280;7120;52.890;6.040;2023-08-07T06:49:07;101200.81;;;15.80;100.00
14089;BME280;7120;52.890;6.040;2023-08-07T06:51:32;101200.22;;;15.65;100.00
14089;BME280;7120;52.890;6.040;2023-08-07T06:53:58;101200.03;;;15.53;100.00
14089;BME280;7120;52.890;6.040;2023-08-07T06:56:23;101208.97;;;15.68;100.00
14089;BME280;7120;52.890;6.040;2023-08-07T06:58:49;101212.31;;;15.90;100.00
14089;BME280;7120;52.890;6.040;2023-08-07T07:01:14;101214.09;;;15.95;100.00
14089;BME280;7120;52.890;6.040;2023-08-07T07:03:40;101211.00;;;15.97;100.00
14089;BME280;7120;52.890;6.040;2023-08-07T07:06:05;101213.91;;;16.00;100.00
14089;BME280;7120;52.890;6.040;2023-08-07T07:08:30;101210.78;;;16.10;100.00
14089;BME280;7120;52.890;6.040;2023-08-07T07:10:56;101215.25;;;16.32;100.00
14089;BME280;7120;52.890;6.040;2023-08-07T07:13:23;101207.47;;;16.26;100.00
14089;BME280;7120;52.890;6.040;2023-08-07T07:15:53;101221.13;;;16.22;100.00
14089;BME280;7120;52.890;6.040;2023-08-07T07:18:19;101218.97;;;16.28;100.00
14089;BME280;7120;52.890;6.040;2023-08-07T07:20:44;101231.25;;;16.47;100.00
14089;BME280;7120;52.890;6.040;2023-08-07T07:23:09;101238.88;;;16.51;100.00
14089;BME280;7120;52.890;6.040;2023-08-07T07:25:35;101250.06;;;16.16;100.00
14089;BME280;7120;52.890;6.040;2023-08-07T07:28:00;101233.91;;;15.80;100.00
14089;BME280;7120;52.890;6.040;2023-08-07T07:30:26;101244.00;;;15.67;100.00
14089;BME280;7120;52.890;6.040;2023-08-07T07:32:51;101256.28;;;15.61;100.00
14089;BME280;7120;52.890;6.040;2023-08-07T07:35:16;101251.94;;;15.69;100.00
14089;BME280;7120;52.890;6.040;2023-08-07T07:37:42;101250.69;;;16.13;100.00
14089;BME280;7120;52.890;6.040;2023-08-07T07:40:08;101254.50;;;16.76;100.00
14089;BME280;7120;52.890;6.040;2023-08-07T07:42:34;101248.72;;;16.60;100.00
14089;BME280;7120;52.890;6.040;2023-08-07T07:44:59;101255.09;;;16.52;100.00
14089;BME280;7120;52.890;6.040;2023-08-07T07:47:24;101245.63;;;16.91;100.00
14089;BME280;7120;52.890;6.040;2023-08-07T07:50:04;101249.56;;;17.53;100.00
14089;BME280;7120;52.890;6.040;2023-08-07T07:52:30;101247.34;;;17.46;100.00
14089;BME280;7120;52.890;6.040;2023-08-07T07:54:56;101258.72;;;17.87;100.00
14089;BME280;7120;52.890;6.040;2023-08-07T07:57:21;101251.28;;;18.11;100.00
14089;BME280;7120;52.890;6.040;2023-08-07T07:59:47;101253.34;;;18.02;100.00
14089;BME280;7120;52.890;6.040;2023-08-07T08:02:14;101263.09;;;17.88;100.00
14089;BME280;7120;52.890;6.040;2023-08-07T08:04:41;101251.16;;;17.54;100.00
14089;BME280;7120;52.890;6.040;2023-08-07T08:07:06;101273.03;;;17.26;100.00
14089;BME280;7120;52.890;6.040;2023-08-07T08:09:31;101290.38;;;16.46;100.00
14089;BME280;7120;52.890;6.040;2023-08-07T08:11:57;101304.13;;;15.48;100.00
14089;BME280;7120;52.890;6.040;2023-08-07T08:14:22;101305.19;;;14.95;100.00
14089;BME280;7120;52.890;6.040;2023-08-07T08:16:48;101312.78;;;14.89;100.00
14089;BME280;7120;52.890;6.040;2023-08-07T08:19:13;101311.31;;;14.83;100.00
14089;BME280;7120;52.890;6.040;2023-08-07T08:21:40;101307.06;;;14.77;100.00
14089;BME280;7120;52.890;6.040;2023-08-07T08:24:05;101322.78;;;14.76;100.00
14089;BME280;7120;52.890;6.040;2023-08-07T08:26:31;101317.84;;;14.56;100.00
14089;BME280;7120;52.890;6.040;2023-08-07T08:28:56;101319.84;;;14.73;100.00
14089;BME280;7120;52.890;6.040;2023-08-07T08:31:21;101310.19;;;14.84;100.00
14089;BME280;7120;52.890;6.040;2023-08-07T08:33:49;101313.97;;;15.05;100.00
14089;BME280;7120;52.890;6.040;2023-08-07T08:36:14;101317.53;;;15.15;100.00
14089;BME280;7120;52.890;6.040;2023-08-07T08:38:40;101319.38;;;15.36;100.00
14089;BME280;7120;52.890;6.040;2023-08-07T08:41:07;101311.47;;;15.87;100.00
14089;BME280;7120;52.890;6.040;2023-08-07T08:43:34;101312.25;;;16.60;100.00
14089;BME280;7120;52.890;6.040;2023-08-07T08:46:01;101309.28;;;17.03;100.00
14089;BME280;7120;52.890;6.040;2023-08-07T08:48:30;101304.53;;;17.54;100.00
14089;BME280;7120;52.890;6.040;2023-08-07T08:50:59;101313.31;;;18.10;100.00
14089;BME280;7120;52.890;6.040;2023-08-07T08:53:25;101311.69;;;18.43;100.00
14089;BME280;7120;52.890;6.040;2023-08-07T08:55:51;101306.31;;;18.13;100.00
14089;BME280;7120;52.890;6.040;2023-08-07T08:58:17;101303.63;;;17.71;100.00
14089;BME280;7120;52.890;6.040;2023-08-07T09:00:45;101318.78;;;17.65;100.00
14089;BME280;7120;52.890;6.040;2023-08-07T09:03:10;101315.06;;;18.15;100.00
14089;BME280;7120;52.890;6.040;2023-08-07T09:05:37;101310.59;;;17.90;100.00
14089;BME280;7120;52.890;6.040;2023-08-07T09:08:02;101320.47;;;18.57;100.00
14089;BME280;7120;52.890;6.040;2023-08-07T09:10:28;101315.19;;;19.13;100.00
14089;BME280;7120;52.890;6.040;2023-08-07T09:13:02;101320.78;;;19.53;100.00
14089;BME280;7120;52.890;6.040;2023-08-07T09:15:31;101310.03;;;19.64;100.00
14089;BME280;7120;52.890;6.040;2023-08-07T09:17:57;101317.69;;;19.30;100.00
14089;BME280;7120;52.890;6.040;2023-08-07T09:20:25;101340.44;;;18.50;100.00
14089;BME280;7120;52.890;6.040;2023-08-07T09:22:50;101337.88;;;17.58;100.00
14089;BME280;7120;52.890;6.040;2023-08-07T09:25:33;101354.47;;;17.58;100.00
14089;BME280;7120;52.890;6.040;2023-08-07T09:28:02;101352.69;;;17.53;100.00
14089;BME280;7120;52.890;6.040;2023-08-07T09:30:32;101360.13;;;17.41;100.00
14089;BME280;7120;52.890;6.040;2023-08-07T09:33:01;101352.50;;;17.58;100.00
14089;BME280;7120;52.890;6.040;2023-08-07T09:35:29;101352.97;;;18.35;100.00
14089;BME280;7120;52.890;6.040;2023-08-07T09:37:59;101358.88;;;18.46;100.00
14089;BME280;7120;52.890;6.040;2023-08-07T09:40:25;101354.59;;;18.94;100.00
14089;BME280;7120;52.890;6.040;2023-08-07T09:42:53;101359.06;;;19.35;100.00
14089;BME280;7120;52.890;6.040;2023-08-07T09:45:23;101353.38;;;19.68;100.00
14089;BME280;7120;52.890;6.040;2023-08-07T09:48:02;101351.56;;;19.60;100.00
14089;BME280;7120;52.890;6.040;2023-08-07T09:50:29;101368.19;;;19.36;100.00
14089;BME280;7120;52.890;6.040;2023-08-07T09:52:55;101350.53;;;18.67;100.00
14089;BME280;7120;52.890;6.040;2023-08-07T09:55:22;101355.91;;;18.18;100.00
14089;BME280;7120;52.890;6.040;2023-08-07T09:57:49;101356.22;;;18.04;100.00
14089;BME280;7120;52.890;6.040;2023-08-07T10:00:15;101358.91;;;18.58;100.00
14089;BME280;7120;52.890;6.040;2023-08-07T10:02:44;101362.19;;;18.27;100.00
14089;BME280;7120;52.890;6.040;2023-08-07T10:05:10;101360.91;;;19.43;100.00
14089;BME280;7120;52.890;6.040;2023-08-07T10:07:37;101350.44;;;19.77;100.00
14089;BME280;7120;52.890;6.040;2023-08-07T10:10:04;101356.88;;;18.80;100.00
14089;BME280;7120;52.890;6.040;2023-08-07T10:12:29;101367.19;;;18.46;100.00
14089;BME280;7120;52.890;6.040;2023-08-07T10:14:55;101379.69;;;18.19;100.00
14089;BME280;7120;52.890;6.040;2023-08-07T10:17:22;101366.91;;;18.27;100.00
14089;BME280;7120;52.890;6.040;2023-08-07T10:19:48;101378.00;;;18.39;100.00
14089;BME280;7120;52.890;6.040;2023-08-07T10:22:15;101373.56;;;18.47;100.00
14089;BME280;7120;52.890;6.040;2023-08-07T10:24:42;101379.41;;;18.78;100.00
14089;BME280;7120;52.890;6.040;2023-08-07T10:27:10;101385.69;;;19.24;99.99
14089;BME280;7120;52.890;6.040;2023-08-07T10:29:37;101370.28;;;19.27;100.00
14089;BME280;7120;52.890;6.040;2023-08-07T10:32:05;101371.22;;;19.06;98.23
14089;BME280;7120;52.890;6.040;2023-08-07T10:34:34;101374.00;;;18.82;100.00
14089;BME280;7120;52.890;6.040;2023-08-07T10:37:00;101375.72;;;18.99;100.00
14089;BME280;7120;52.890;6.040;2023-08-07T10:39:25;101377.75;;;19.51;100.00
14089;BME280;7120;52.890;6.040;2023-08-07T10:41:54;101381.31;;;20.16;100.00
14089;BME280;7120;52.890;6.040;2023-08-07T10:44:22;101378.88;;;19.86;93.69
14089;BME280;7120;52.890;6.040;2023-08-07T10:46:52;101386.00;;;19.47;92.99
14089;BME280;7120;52.890;6.040;2023-08-07T10:51:59;101401.34;;;18.71;100.00
14089;BME280;7120;52.890;6.040;2023-08-07T10:54:24;101399.25;;;18.80;100.00
14089;BME280;7120;52.890;6.040;2023-08-07T10:56:54;101395.81;;;19.44;100.00
14089;BME280;7120;52.890;6.040;2023-08-07T10:59:20;101401.47;;;18.87;98.37
14089;BME280;7120;52.890;6.040;2023-08-07T11:01:51;101401.84;;;18.98;100.00
14089;BME280;7120;52.890;6.040;2023-08-07T11:04:17;101400.19;;;18.72;100.00
14089;BME280;7120;52.890;6.040;2023-08-07T11:06:46;101390.88;;;18.56;100.00
14089;BME280;7120;52.890;6.040;2023-08-07T11:09:11;101414.03;;;18.72;100.00
14089;BME280;7120;52.890;6.040;2023-08-07T11:11:42;101418.38;;;19.67;100.00
14089;BME280;7120;52.890;6.040;2023-08-07T11:14:26;101402.38;;;20.17;91.48
14089;BME280;7120;52.890;6.040;2023-08-07T11:16:52;101403.59;;;20.91;86.89
14089;BME280;7120;52.890;6.040;2023-08-07T11:19:18;101412.22;;;21.02;85.33
14089;BME280;7120;52.890;6.040;2023-08-07T11:21:44;101398.31;;;20.86;83.75
14089;BME280;7120;52.890;6.040;2023-08-07T11:24:13;101413.91;;;21.06;90.30
14089;BME280;7120;52.890;6.040;2023-08-07T11:26:39;101406.06;;;20.37;85.06
14089;BME280;7120;52.890;6.040;2023-08-07T11:29:06;101415.88;;;19.90;87.80
14089;BME280;7120;52.890;6.040;2023-08-07T11:31:33;101402.34;;;19.89;82.12
14089;BME280;7120;52.890;6.040;2023-08-07T11:33:59;101422.41;;;19.58;83.29
14089;BME280;7120;52.890;6.040;2023-08-07T11:36:27;101415.88;;;18.80;88.03
14089;BME280;7120;52.890;6.040;2023-08-07T11:38:53;101422.16;;;18.89;92.40
14089;BME280;7120;52.890;6.040;2023-08-07T11:41:19;101418.91;;;18.75;96.05
14089;BME280;7120;52.890;6.040;2023-08-07T11:43:44;101419.97;;;19.07;98.90
14089;BME280;7120;52.890;6.040;2023-08-07T11:46:12;101423.09;;;19.55;90.94
14089;BME280;7120;52.890;6.040;2023-08-07T11:48:39;101414.91;;;19.46;91.85
14089;BME280;7120;52.890;6.040;2023-08-07T11:51:05;101425.75;;;19.27;94.68
14089;BME280;7120;52.890;6.040;2023-08-07T11:53:34;101416.94;;;18.88;95.69
14089;BME280;7120;52.890;6.040;2023-08-07T11:56:02;101431.53;;;18.64;96.95
14089;BME280;7120;52.890;6.040;2023-08-07T11:58:34;101427.97;;;18.63;100.00
14089;BME280;7120;52.890;6.040;2023-08-07T12:01:03;101428.84;;;18.88;100.00
14089;BME280;7120;52.890;6.040;2023-08-07T12:03:31;101433.22;;;18.77;98.91
14089;BME280;7120;52.890;6.040;2023-08-07T12:05:59;101434.84;;;18.24;100.00
14089;BME280;7120;52.890;6.040;2023-08-07T12:08:38;101450.34;;;17.83;100.00
14089;BME280;7120;52.890;6.040;2023-08-07T12:11:06;101440.88;;;17.55;100.00
14089;BME280;7120;52.890;6.040;2023-08-07T12:13:31;101447.28;;;18.18;100.00
14089;BME280;7120;52.890;6.040;2023-08-07T12:16:01;101437.63;;;18.57;100.00
14089;BME280;7120;52.890;6.040;2023-08-07T12:18:27;101438.22;;;18.63;100.00
14089;BME280;7120;52.890;6.040;2023-08-07T12:20:58;101431.50;;;18.52;100.00
14089;BME280;7120;52.890;6.040;2023-08-07T12:23:24;101424.84;;;18.32;100.00
14089;BME280;7120;52.890;6.040;2023-08-07T12:25:50;101443.66;;;18.05;100.00
14089;BME280;7120;52.890;6.040;2023-08-07T12:28:15;101474.41;;;17.15;100.00
14089;BME280;7120;52.890;6.040;2023-08-07T12:30:44;101470.97;;;16.11;100.00
14089;BME280;7120;52.890;6.040;2023-08-07T12:33:10;101474.16;;;15.78;100.00
14089;BME280;7120;52.890;6.040;2023-08-07T12:35:35;101468.63;;;15.70;100.00
14089;BME280;7120;52.890;6.040;2023-08-07T12:38:00;101471.50;;;15.56;100.00
14089;BME280;7120;52.890;6.040;2023-08-07T12:40:28;101462.50;;;15.90;100.00
14089;BME280;7120;52.890;6.040;2023-08-07T12:42:53;101467.59;;;16.14;100.00
14089;BME280;7120;52.890;6.040;2023-08-07T12:45:19;101459.94;;;16.11;100.00
14089;BME280;7120;52.890;6.040;2023-08-07T12:47:45;101465.78;;;16.09;100.00
14089;BME280;7120;52.890;6.040;2023-08-07T12:50:11;101462.53;;;16.25;100.00
14089;BME280;7120;52.890;6.040;2023-08-07T12:52:36;101443.88;;;16.04;100.00